Nearby METAR Reports

 

KORH - Worcester, Massachusetts, USA
Distance from station: NW 4mi, 7km
Updated: Fri, 05-Jun-2020 10:54pm EDT
Clear
Clear
 Wind from WSW
Wind: WSW 14 mph , 22 km/h
Temperature: 70°F , 21°C
Dew Point: 64°F , 18°C
Humidity: 83%
Barometer: 29.87 inHg , 1011.5 hPa
Clouds: Clear
Visibility: 10 miles , 16 km
2020/06/06 02:54 KORH 060254Z 24012KT 10SM CLR 21/18 A2987 RMK AO2 SLP110 T02110183 58001
KBOS - Boston, Massachusetts, USA
Distance from station: ENE 42mi, 68km
Updated: Fri, 05-Jun-2020 10:54pm EDT
Overcast
Overcast
 Wind from SW
Wind: SW 12 mph , 19 km/h
Temperature: 72°F , 22°C
Dew Point: 66°F , 19°C
Humidity: 83%
Barometer: 29.84 inHg , 1010.5 hPa
Clouds: Overcast
Visibility: 10 miles , 16 km
Cloud details: Few Clouds 20000 ft
Few Clouds 22000 ft
Overcast 25000 ft
2020/06/06 02:54 KBOS 060254Z 23010KT 10SM FEW200 FEW220 OVC250 22/19 A2984 RMK AO2 SLP105 T02220189 50008
 
KCQX - Chatham, Massachusetts, USA
Distance from station: SE 102mi, 164km
Updated: Fri, 05-Jun-2020 10:52pm EDT
Mist, Mostly cloudy
Mist, Mostly cloudy
 Wind from SW
Wind: SW 9 mph , 15 km/h, Gust: 16 mph , 26 km/h
Temperature: 63°F , 17°C
Dew Point: 61°F , 16°C
Humidity: 94%
Barometer: 29.91 inHg , 1012.9 hPa
Summary: Mist
Clouds: Mostly cloudy
Visibility: 5 miles , 8 km
Cloud details: Partly cloudy 400 ft
Partly cloudy 5000 ft
Mostly cloudy 7500 ft
2020/06/06 02:52 KCQX 060252Z AUTO 23008G14KT 5SM BR SCT004 SCT050 BKN075 17/16 A2991 RMK AO2 RAE42 SLP129 P0000 60002 T01670156 51006
KMVY - Marthas Vineyard, Massachusetts, USA
Distance from station: SE 84mi, 135km
Updated: Fri, 05-Jun-2020 10:53pm EDT
Clear
Clear
 Wind from SW
Wind: SW 9 mph , 15 km/h
Temperature: 63°F , 17°C
Dew Point: 61°F , 16°C
Humidity: 94%
Barometer: 29.91 inHg , 1012.9 hPa
Clouds: Clear
Visibility: 8 miles , 13 km
2020/06/06 02:53 KMVY 060253Z AUTO 22008KT 8SM CLR 17/16 A2991 RMK AO2 SLP127 60000 T01720156 50000
 
KPVC - Provincetown, Massachusetts, USA
Distance from station: NNW 85mi, 136km
Updated: Fri, 05-Jun-2020 10:56pm EDT
Light rain, Overcast
Light rain, Overcast
 Wind from SSW
Wind: SSW 14 mph , 22 km/h
Temperature: 63°F , 17°C
Dew Point: 61°F , 16°C
Humidity: 94%
Barometer: 29.87 inHg , 1011.5 hPa
Summary: Light rain
Clouds: Overcast
Visibility: 10 miles , 16 km
Cloud details: Mostly cloudy 9000 ft
Overcast 11000 ft
2020/06/06 02:56 KPVC 060256Z AUTO 21012KT 10SM -RA BKN090 OVC110 17/16 A2987 RMK AO2 RAB54 SLP115 P0000 60000 T01720161 50005
KAQW - Savoy, Massachusetts, USA
Distance from station: NNW 66mi, 106km
Updated: Fri, 05-Jun-2020 10:52pm EDT
Overcast
Overcast
 Wind from N
Wind: N 3 mph , 6 km/h
Temperature: 73°F , 23°C
Dew Point: 66°F , 19°C
Humidity: 78%
Barometer: 29.84 inHg , 1010.5 hPa
Clouds: Overcast
Visibility: 10 miles , 16 km
Cloud details: Overcast 2900 ft
2020/06/06 02:52 KAQW 060252Z AUTO 01003KT 10SM OVC029 23/19 A2984 RMK AO2 SLP101 T02280189 51004
 
KIZG - Fryeburg, Maine, USA
Distance from station: NNE 133mi, 214km
Updated: Fri, 05-Jun-2020 10:54pm EDT
Partly cloudy
Partly cloudy
 Wind from varies
Wind: varies 5 mph , 7 km/h
Temperature: 72°F , 22°C
Dew Point: 63°F , 17°C
Humidity: 73%
Barometer: 29.79 inHg , 1008.8 hPa
Clouds: Partly cloudy
Visibility: 10 miles , 16 km
Cloud details: Partly cloudy 8000 ft
2020/06/06 02:54 KIZG 060254Z AUTO VRB04KT 10SM SCT080 22/17 A2979 RMK AO2 SLP088 T02220172 50008
KMWN - Mt Washington, New Hampshire, USA
Distance from station: NNE 146mi, 234km
Updated: Fri, 05-Jun-2020 10:53pm EDT
Mostly cloudy
Mostly cloudy
 Wind from W
Wind: W 23 mph , 37 km/h
Temperature: 52°F , 11°C
Dew Point: 48°F , 9°C
Humidity: 88%
Clouds: Mostly cloudy
Visibility: 40 miles , 64 km
Cloud details: Partly cloudy 1500 ft
Mostly cloudy 3000 ft
Mostly cloudy 17000 ft
2020/06/06 02:53 KMWN 060253Z 27020KT 40SM SCT015 BKN030 BKN170 11/09 RMK HZ DSNT ALQDS
 
KBML - Berlin, New Hampshire, USA
Distance from station: NNE 160mi, 257km
Updated: Fri, 05-Jun-2020 10:52pm EDT
Overcast
Overcast
 Wind from calm
Wind: Calm
Temperature: 64°F , 18°C
Dew Point: 57°F , 14°C
Humidity: 78%
Barometer: 29.83 inHg , 1010.2 hPa
Clouds: Overcast
Visibility: 10 miles , 16 km
Cloud details: Mostly cloudy 6500 ft
Overcast 8000 ft
2020/06/06 02:52 KBML 060252Z AUTO 00000KT 10SM BKN065 OVC080 18/14 A2983 RMK AO2 SLP095 T01830139 51013